Time;durP1;ratioP1;P1;durP2;ratioP2;P2;SDS_P1;SDS_P2;PMS_P1;PMS_P2;Temp;Humidity;BMP_temperature;BMP_pressure;BME280_temperature;BME280_humidity;BME280_pressure;Samples;Min_cycle;Max_cycle;Signal;HPM_P1;HPM_P2
2023/08/10 00:01:19;;;;;;;;;;;13.60;81.40;;;;;;4983319;28;19934;-70
2023/08/10 00:03:47;;;;;;;;;;;13.60;81.50;;;;;;4988326;28;19937;-70
2023/08/10 00:06:15;;;;;;;;;;;13.70;81.50;;;;;;4987581;28;19930;-69
2023/08/10 00:08:43;;;;;;;;;;;13.70;81.60;;;;;;4987124;28;19961;-71
2023/08/10 00:11:11;;;;;;;;;;;13.60;81.60;;;;;;4986594;28;20419;-70
2023/08/10 00:13:39;;;;;;;;;;;13.60;81.50;;;;;;4987616;28;19930;-71
2023/08/10 00:16:06;;;;;;;;;;;13.60;81.50;;;;;;4985963;28;19933;-69
2023/08/10 00:18:33;;;;;;;;;;;13.50;81.60;;;;;;4988161;28;20029;-70
2023/08/10 00:21:01;;;;;;;;;;;13.50;81.70;;;;;;4989930;28;19933;-70
2023/08/10 00:23:30;;;;;;;;;;;13.40;81.80;;;;;;4988413;28;19930;-69
2023/08/10 00:25:58;;;;;;;;;;;13.40;81.90;;;;;;4971613;28;19925;-70
2023/08/10 00:28:26;;;;;;;;;;;13.40;82.00;;;;;;4988360;28;19929;-69
2023/08/10 00:30:54;;;;;;;;;;;13.40;81.90;;;;;;4986433;28;19929;-70
2023/08/10 00:33:22;;;;;;;;;;;13.40;81.90;;;;;;4987876;28;20029;-69
2023/08/10 00:35:49;;;;;;;;;;;13.40;81.90;;;;;;4988434;28;19933;-71
2023/08/10 00:38:17;;;;;;;;;;;13.30;81.80;;;;;;4988198;28;19932;-70
2023/08/10 00:40:46;;;;;;;;;;;13.30;81.80;;;;;;4986386;28;19929;-69
2023/08/10 00:43:13;;;;;;;;;;;13.30;81.90;;;;;;4969728;28;19926;-69
2023/08/10 00:45:40;;;;;;;;;;;13.30;82.00;;;;;;4987639;28;19929;-70
2023/08/10 00:48:07;;;;;;;;;;;13.30;82.10;;;;;;4986104;28;20045;-71
2023/08/10 00:50:34;;;;;;;;;;;13.30;82.10;;;;;;4987239;28;19930;-71
2023/08/10 00:53:01;;;;;;;;;;;13.30;82.20;;;;;;4987243;28;19988;-69
2023/08/10 00:55:29;;;;;;;;;;;13.30;82.30;;;;;;4988475;28;19937;-70
2023/08/10 00:57:57;;;;;;;;;;;13.30;82.50;;;;;;4983343;28;20290;-69
2023/08/10 01:00:24;;;;;;;;;;;13.30;82.60;;;;;;4987911;28;20012;-69
2023/08/10 01:02:52;;;;;;;;;;;13.30;82.50;;;;;;4987218;28;20025;-69
2023/08/10 01:05:19;;;;;;;;;;;13.40;82.60;;;;;;4987040;28;20354;-70
2023/08/10 01:07:52;;;;;;;;;;;13.30;82.60;;;;;;4987568;28;19929;-67
2023/08/10 01:10:22;;;;;;;;;;;13.30;82.70;;;;;;4985783;28;20002;-67
2023/08/10 01:12:52;;;;;;;;;;;13.30;82.80;;;;;;4987640;28;20381;-67
2023/08/10 01:15:24;;;;;;;;;;;13.30;82.80;;;;;;4988421;28;19973;-67
2023/08/10 01:17:52;;;;;;;;;;;13.20;82.90;;;;;;4977852;28;19929;-68
2023/08/10 01:20:22;;;;;;;;;;;13.30;82.80;;;;;;4988240;28;19958;-68
2023/08/10 01:22:51;;;;;;;;;;;13.30;82.70;;;;;;4988824;28;19984;-67
2023/08/10 01:25:21;;;;;;;;;;;13.30;82.90;;;;;;4974374;28;19933;-69
2023/08/10 01:27:48;;;;;;;;;;;13.30;82.70;;;;;;4988689;28;19930;-68
2023/08/10 01:30:15;;;;;;;;;;;13.30;82.90;;;;;;4976594;28;19925;-67
2023/08/10 01:32:42;;;;;;;;;;;13.30;83.10;;;;;;4980731;28;19925;-67
2023/08/10 01:35:10;;;;;;;;;;;13.30;83.30;;;;;;4975893;28;20029;-68
2023/08/10 01:37:37;;;;;;;;;;;13.30;83.40;;;;;;4988089;28;20020;-68
2023/08/10 01:40:07;;;;;;;;;;;13.40;83.00;;;;;;4975140;28;19937;-69
2023/08/10 01:42:36;;;;;;;;;;;13.40;83.10;;;;;;4988672;28;19936;-68
2023/08/10 01:45:04;;;;;;;;;;;13.40;83.00;;;;;;4985317;28;19925;-68
2023/08/10 01:47:35;;;;;;;;;;;13.40;83.00;;;;;;4987662;28;19926;-69
2023/08/10 01:50:04;;;;;;;;;;;13.30;83.20;;;;;;4974193;28;19937;-69
2023/08/10 01:52:34;;;;;;;;;;;13.40;83.20;;;;;;4987524;28;20017;-68
2023/08/10 01:55:02;;;;;;;;;;;13.40;82.70;;;;;;4987761;28;20473;-70
2023/08/10 01:57:29;;;;;;;;;;;13.40;82.70;;;;;;4988727;28;19930;-67
2023/08/10 01:59:58;;;;;;;;;;;13.40;82.60;;;;;;4989805;28;19937;-68
2023/08/10 02:02:25;;;;;;;;;;;13.50;82.60;;;;;;4971616;28;21451;-68
2023/08/10 02:04:52;;;;;;;;;;;13.50;82.30;;;;;;4987137;28;19926;-68
2023/08/10 02:07:19;;;;;;;;;;;13.50;82.30;;;;;;4974897;28;19933;-68
2023/08/10 02:09:47;;;;;;;;;;;13.40;82.50;;;;;;4992036;28;19942;-69
2023/08/10 02:12:14;;;;;;;;;;;13.40;82.50;;;;;;4976891;28;20378;-68
2023/08/10 02:14:41;;;;;;;;;;;13.40;82.50;;;;;;4970878;28;19944;-69
2023/08/10 02:17:10;;;;;;;;;;;13.40;82.70;;;;;;4987306;28;20990;-68
2023/08/10 02:19:38;;;;;;;;;;;13.30;82.80;;;;;;4988245;28;19926;-68
2023/08/10 02:22:05;;;;;;;;;;;13.30;82.90;;;;;;4986135;28;19949;-68
2023/08/10 02:24:32;;;;;;;;;;;13.30;82.90;;;;;;4989289;28;19929;-68
2023/08/10 02:26:59;;;;;;;;;;;13.30;82.90;;;;;;4989733;28;19933;-69
2023/08/10 02:29:26;;;;;;;;;;;13.20;82.80;;;;;;4988130;28;20049;-68
2023/08/10 02:31:53;;;;;;;;;;;13.20;82.80;;;;;;5001754;28;19940;-69
2023/08/10 02:34:22;;;;;;;;;;;13.20;82.60;;;;;;4987573;28;19929;-69
2023/08/10 02:36:49;;;;;;;;;;;13.20;82.70;;;;;;4986549;28;19926;-68
2023/08/10 02:39:16;;;;;;;;;;;13.10;82.70;;;;;;4988803;28;19926;-68
2023/08/10 02:41:43;;;;;;;;;;;13.10;82.80;;;;;;4986713;28;19926;-69
2023/08/10 02:44:11;;;;;;;;;;;13.00;82.90;;;;;;4987581;28;20381;-69
2023/08/10 02:46:38;;;;;;;;;;;13.10;83.10;;;;;;4987515;28;19929;-68
2023/08/10 02:49:05;;;;;;;;;;;13.10;83.00;;;;;;4986160;28;20488;-68
2023/08/10 02:51:34;;;;;;;;;;;13.10;83.00;;;;;;4989496;28;19934;-68
2023/08/10 02:54:01;;;;;;;;;;;13.00;83.10;;;;;;4987364;28;19925;-68
2023/08/10 02:56:28;;;;;;;;;;;13.00;83.30;;;;;;4988617;28;20016;-68
2023/08/10 02:58:55;;;;;;;;;;;12.90;83.50;;;;;;4979232;28;20467;-68
2023/08/10 03:01:22;;;;;;;;;;;13.00;83.30;;;;;;4979520;28;19944;-68
2023/08/10 03:03:49;;;;;;;;;;;12.90;83.30;;;;;;4980040;28;19972;-68
2023/08/10 03:06:16;;;;;;;;;;;12.90;83.30;;;;;;4980544;28;19933;-68
2023/08/10 03:08:45;;;;;;;;;;;12.90;83.20;;;;;;4992234;28;19926;-68
2023/08/10 03:11:14;;;;;;;;;;;12.80;83.20;;;;;;4992827;28;19930;-67
2023/08/10 03:13:41;;;;;;;;;;;12.80;83.20;;;;;;4989953;28;19933;-68
2023/08/10 03:16:09;;;;;;;;;;;12.70;83.20;;;;;;4989061;28;19926;-68
2023/08/10 03:18:38;;;;;;;;;;;12.70;83.30;;;;;;4981929;28;21904;-68
2023/08/10 03:21:05;;;;;;;;;;;12.70;83.40;;;;;;4979484;28;19930;-69
2023/08/10 03:23:32;;;;;;;;;;;12.70;83.30;;;;;;4990723;28;20064;-68
2023/08/10 03:26:01;;;;;;;;;;;12.70;83.40;;;;;;4974988;28;20057;-69
2023/08/10 03:28:28;;;;;;;;;;;12.60;83.50;;;;;;4995082;28;20013;-81
2023/08/10 03:30:56;;;;;;;;;;;12.70;83.50;;;;;;4990752;28;20392;-80
2023/08/10 03:33:23;;;;;;;;;;;12.70;83.50;;;;;;4981337;28;20016;-81
2023/08/10 03:35:50;;;;;;;;;;;12.60;83.50;;;;;;4995859;28;19989;-81
2023/08/10 03:38:17;;;;;;;;;;;12.60;83.60;;;;;;4977224;28;20016;-81
2023/08/10 03:40:44;;;;;;;;;;;12.60;83.70;;;;;;4987432;28;20377;-81
2023/08/10 03:43:13;;;;;;;;;;;12.60;83.70;;;;;;4990633;28;20282;-81
2023/08/10 03:45:40;;;;;;;;;;;12.60;83.80;;;;;;4991198;28;20371;-81
2023/08/10 03:48:08;;;;;;;;;;;12.60;83.80;;;;;;4975300;28;20008;-81
2023/08/10 03:50:35;;;;;;;;;;;12.60;83.80;;;;;;4991474;28;19948;-81
2023/08/10 03:53:02;;;;;;;;;;;12.60;84.00;;;;;;4979220;28;19969;-79
2023/08/10 03:55:29;;;;;;;;;;;12.60;84.10;;;;;;4974761;28;19942;-81
2023/08/10 03:57:56;;;;;;;;;;;12.60;84.20;;;;;;4953533;28;19953;-81
2023/08/10 04:00:25;;;;;;;;;;;12.70;84.30;;;;;;4989374;28;19926;-81
2023/08/10 04:02:53;;;;;;;;;;;12.70;84.40;;;;;;4990602;28;19930;-81
2023/08/10 04:05:21;;;;;;;;;;;12.70;84.60;;;;;;4972310;28;19937;-81
2023/08/10 04:07:48;;;;;;;;;;;12.60;84.50;;;;;;4978538;28;19980;-79
2023/08/10 04:10:16;;;;;;;;;;;12.60;84.50;;;;;;4988623;28;20027;-81
2023/08/10 04:12:43;;;;;;;;;;;12.70;84.60;;;;;;4990369;28;19930;-81
2023/08/10 04:15:10;;;;;;;;;;;12.60;84.60;;;;;;4988575;28;19930;-81
2023/08/10 04:17:38;;;;;;;;;;;12.70;84.50;;;;;;4990720;28;20435;-81
2023/08/10 04:20:09;;;;;;;;;;;12.80;84.50;;;;;;4978100;28;20029;-81
2023/08/10 04:22:36;;;;;;;;;;;12.80;84.40;;;;;;4990314;28;20411;-80
2023/08/10 04:25:04;;;;;;;;;;;12.70;84.40;;;;;;4990014;28;19926;-82
2023/08/10 04:27:31;;;;;;;;;;;12.80;84.20;;;;;;4991647;28;19961;-79
2023/08/10 04:29:58;;;;;;;;;;;12.70;84.20;;;;;;4990387;28;19937;-80
2023/08/10 04:32:25;;;;;;;;;;;12.70;84.20;;;;;;4987879;28;19940;-81
2023/08/10 04:34:54;;;;;;;;;;;12.80;84.30;;;;;;4990475;28;19926;-82
2023/08/10 04:37:21;;;;;;;;;;;12.80;84.30;;;;;;4989921;28;19925;-81
2023/08/10 04:39:48;;;;;;;;;;;12.80;84.30;;;;;;4991224;28;19934;-69
2023/08/10 04:42:15;;;;;;;;;;;12.80;84.20;;;;;;4985698;28;19929;-68
2023/08/10 04:44:42;;;;;;;;;;;12.90;84.20;;;;;;4989449;28;20417;-68
2023/08/10 04:47:09;;;;;;;;;;;12.90;84.20;;;;;;4984969;28;19936;-69
2023/08/10 04:49:36;;;;;;;;;;;12.90;84.10;;;;;;4989159;28;19965;-68
2023/08/10 04:52:05;;;;;;;;;;;13.00;84.10;;;;;;4989567;28;20385;-70
2023/08/10 04:54:32;;;;;;;;;;;13.00;84.10;;;;;;4979116;28;20017;-69
2023/08/10 04:56:59;;;;;;;;;;;13.00;84.20;;;;;;4990678;28;20369;-69
2023/08/10 04:59:26;;;;;;;;;;;13.10;84.20;;;;;;4980416;28;19933;-68
2023/08/10 05:02:02;;;;;;;;;;;13.10;84.00;;;;;;4989202;28;19937;-70
2023/08/10 05:04:40;;;;;;;;;;;13.10;84.10;;;;;;4987447;28;19934;-69
2023/08/10 05:07:23;;;;;;;;;;;13.10;84.10;;;;;;4978484;28;20266;-68
2023/08/10 05:10:04;;;;;;;;;;;13.20;84.20;;;;;;4988810;28;19930;-69
2023/08/10 05:12:40;;;;;;;;;;;13.10;84.20;;;;;;4989119;28;19930;-69
2023/08/10 05:15:17;;;;;;;;;;;13.20;84.40;;;;;;4988593;28;19929;-69
2023/08/10 05:17:55;;;;;;;;;;;13.20;84.30;;;;;;4986594;28;19933;-69
2023/08/10 05:20:31;;;;;;;;;;;13.20;84.50;;;;;;4987601;28;19936;-69
2023/08/10 05:23:11;;;;;;;;;;;13.20;84.30;;;;;;4988999;28;19933;-68
2023/08/10 05:25:48;;;;;;;;;;;13.30;84.20;;;;;;4985371;28;19929;-69
2023/08/10 05:28:23;;;;;;;;;;;13.30;84.30;;;;;;4988279;28;19929;-69
2023/08/10 05:31:00;;;;;;;;;;;13.40;84.00;;;;;;4989843;28;20279;-69
2023/08/10 05:33:35;;;;;;;;;;;13.40;84.00;;;;;;4987464;28;19926;-69
2023/08/10 05:36:22;;;;;;;;;;;13.40;84.20;;;;;;4988509;28;19930;-69
2023/08/10 05:39:03;;;;;;;;;;;13.40;84.20;;;;;;4988364;28;19925;-69
2023/08/10 05:41:41;;;;;;;;;;;13.50;84.10;;;;;;4988066;28;19926;-69
2023/08/10 05:44:29;;;;;;;;;;;13.50;84.10;;;;;;4986498;28;20054;-69
2023/08/10 05:47:05;;;;;;;;;;;13.50;83.80;;;;;;4988259;28;19941;-69
2023/08/10 05:49:42;;;;;;;;;;;13.60;83.70;;;;;;4988368;28;19929;-63
2023/08/10 05:52:17;;;;;;;;;;;13.60;83.80;;;;;;4988601;28;20400;-63
2023/08/10 05:54:57;;;;;;;;;;;13.70;83.70;;;;;;4990091;28;19929;-64
2023/08/10 05:57:31;;;;;;;;;;;13.70;83.80;;;;;;4986924;28;19987;-65
2023/08/10 06:00:03;;;;;;;;;;;13.70;83.30;;;;;;4987652;28;19933;-63
2023/08/10 06:02:48;;;;;;;;;;;13.80;83.60;;;;;;4987946;28;19938;-64
2023/08/10 06:05:25;;;;;;;;;;;13.90;83.30;;;;;;4987889;28;20009;-63
2023/08/10 06:08:03;;;;;;;;;;;13.90;83.30;;;;;;4988270;28;20045;-63
2023/08/10 06:10:44;;;;;;;;;;;13.90;83.10;;;;;;4987501;28;19929;-64
2023/08/10 06:13:20;;;;;;;;;;;14.00;83.30;;;;;;4988280;28;19930;-63
2023/08/10 06:15:59;;;;;;;;;;;14.10;82.90;;;;;;4982190;28;19937;-63
2023/08/10 06:18:33;;;;;;;;;;;14.10;83.20;;;;;;4987521;28;19926;-63
2023/08/10 06:21:10;;;;;;;;;;;14.20;83.10;;;;;;4987335;28;19934;-63
2023/08/10 06:23:47;;;;;;;;;;;14.20;83.00;;;;;;4987593;28;19937;-64
2023/08/10 06:26:27;;;;;;;;;;;14.10;83.00;;;;;;4987559;28;19925;-63
2023/08/10 06:29:04;;;;;;;;;;;14.10;83.10;;;;;;4987443;28;20012;-63
2023/08/10 06:31:41;;;;;;;;;;;14.10;83.10;;;;;;4985317;28;19974;-63
2023/08/10 06:34:19;;;;;;;;;;;14.20;83.00;;;;;;4992792;28;20021;-64
2023/08/10 06:36:57;;;;;;;;;;;14.30;82.70;;;;;;4993442;28;19925;-63
2023/08/10 06:39:37;;;;;;;;;;;14.40;82.50;;;;;;4992427;28;19932;-63
2023/08/10 06:42:24;;;;;;;;;;;14.50;82.00;;;;;;4990752;28;20373;-63
2023/08/10 06:45:26;;;;;;;;;;;14.70;82.10;;;;;;5007838;28;20028;-64
2023/08/10 06:48:05;;;;;;;;;;;14.80;81.90;;;;;;5008061;28;19933;-63
2023/08/10 06:50:43;;;;;;;;;;;14.90;81.50;;;;;;5006165;28;19929;-63
2023/08/10 06:53:25;;;;;;;;;;;14.90;81.90;;;;;;5007017;28;20510;-65
2023/08/10 06:56:03;;;;;;;;;;;15.00;81.90;;;;;;5007358;28;19929;-64
2023/08/10 06:58:43;;;;;;;;;;;15.20;81.60;;;;;;5008416;28;19961;-73
2023/08/10 07:01:19;;;;;;;;;;;15.40;81.40;;;;;;5008956;28;19929;-72
2023/08/10 07:03:57;;;;;;;;;;;15.60;81.10;;;;;;5009134;28;20012;-75
2023/08/10 07:06:34;;;;;;;;;;;15.90;80.40;;;;;;5006810;28;19929;-73
2023/08/10 07:09:12;;;;;;;;;;;15.90;80.00;;;;;;5006991;28;19925;-74
2023/08/10 07:11:52;;;;;;;;;;;15.90;80.20;;;;;;5007432;28;19968;-74
2023/08/10 07:14:31;;;;;;;;;;;15.90;80.10;;;;;;5007416;28;19980;-74
2023/08/10 07:17:06;;;;;;;;;;;15.80;79.80;;;;;;5006512;28;19929;-73
2023/08/10 07:19:41;;;;;;;;;;;16.00;79.50;;;;;;5007921;28;20376;-74
2023/08/10 07:22:21;;;;;;;;;;;16.30;79.20;;;;;;5005326;28;19925;-74
2023/08/10 07:24:54;;;;;;;;;;;16.60;78.50;;;;;;5008819;28;19925;-73
2023/08/10 07:27:29;;;;;;;;;;;16.80;78.10;;;;;;5006156;28;19937;-73
2023/08/10 07:30:10;;;;;;;;;;;16.90;77.80;;;;;;5007099;28;20008;-73
2023/08/10 07:32:48;;;;;;;;;;;17.00;77.40;;;;;;5007062;28;20023;-74
2023/08/10 07:35:25;;;;;;;;;;;17.00;77.50;;;;;;5001052;28;20389;-74
2023/08/10 07:38:03;;;;;;;;;;;17.10;77.40;;;;;;4990819;28;19925;-74
2023/08/10 07:40:41;;;;;;;;;;;17.10;77.50;;;;;;4989231;28;20012;-75
2023/08/10 07:43:20;;;;;;;;;;;17.40;77.00;;;;;;4991357;28;19992;-74
2023/08/10 07:45:58;;;;;;;;;;;17.50;76.90;;;;;;4991808;28;19933;-74
2023/08/10 07:48:36;;;;;;;;;;;17.50;76.50;;;;;;4989498;28;19933;-73
2023/08/10 07:51:11;;;;;;;;;;;17.40;76.80;;;;;;4990084;28;19937;-73
2023/08/10 07:53:49;;;;;;;;;;;17.40;76.80;;;;;;4989971;28;19981;-73
2023/08/10 07:56:26;;;;;;;;;;;17.40;76.90;;;;;;4988171;28;20286;-73
2023/08/10 07:59:04;;;;;;;;;;;17.40;76.90;;;;;;4989163;28;19941;-74
2023/08/10 08:01:45;;;;;;;;;;;17.50;76.90;;;;;;4989120;28;19936;-73
2023/08/10 08:04:22;;;;;;;;;;;17.70;76.40;;;;;;4990891;28;19936;-73
2023/08/10 08:07:05;;;;;;;;;;;17.90;76.70;;;;;;4990624;28;20024;-73
2023/08/10 08:09:42;;;;;;;;;;;18.20;76.10;;;;;;4990499;28;19932;-74
2023/08/10 08:12:39;;;;;;;;;;;18.50;75.50;;;;;;4988915;28;19942;-74
2023/08/10 08:15:19;;;;;;;;;;;18.70;74.50;;;;;;4989994;28;19929;-74
2023/08/10 08:18:11;;;;;;;;;;;18.90;74.30;;;;;;4990104;28;19926;-73
2023/08/10 08:20:55;;;;;;;;;;;19.10;73.70;;;;;;4990472;28;20566;-74
2023/08/10 08:23:25;;;;;;;;;;;19.30;72.20;;;;;;4990235;28;20278;-73
2023/08/10 08:25:53;;;;;;;;;;;19.40;71.60;;;;;;4989557;28;20385;-74
2023/08/10 08:28:28;;;;;;;;;;;19.40;71.30;;;;;;4988295;28;19933;-73
2023/08/10 08:31:09;;;;;;;;;;;19.30;71.30;;;;;;4988733;28;19926;-74
2023/08/10 08:33:47;;;;;;;;;;;19.40;71.40;;;;;;4988678;28;19952;-74
2023/08/10 08:36:25;;;;;;;;;;;19.50;71.30;;;;;;4987981;28;19934;-74
2023/08/10 08:39:02;;;;;;;;;;;19.60;70.90;;;;;;4988594;28;20352;-74
2023/08/10 08:41:41;;;;;;;;;;;19.90;70.70;;;;;;4986372;28;19941;-74
2023/08/10 08:44:20;;;;;;;;;;;20.10;69.90;;;;;;4986234;28;19934;-75
2023/08/10 08:46:57;;;;;;;;;;;20.30;69.20;;;;;;4988355;28;19981;-74
2023/08/10 08:49:35;;;;;;;;;;;20.30;68.90;;;;;;4987207;28;19930;-73
2023/08/10 08:52:12;;;;;;;;;;;20.50;68.30;;;;;;4987311;28;19949;-74
2023/08/10 08:54:54;;;;;;;;;;;20.60;68.60;;;;;;4987320;28;19930;-74
2023/08/10 08:57:32;;;;;;;;;;;20.50;68.50;;;;;;5001623;28;19929;-74
2023/08/10 09:00:11;;;;;;;;;;;20.50;68.20;;;;;;4984807;28;19937;-73
2023/08/10 09:02:48;;;;;;;;;;;20.50;68.30;;;;;;4987656;28;20022;-74
2023/08/10 09:05:25;;;;;;;;;;;20.30;68.30;;;;;;5001715;28;19936;-74
2023/08/10 09:08:03;;;;;;;;;;;20.20;68.90;;;;;;4987806;28;19933;-73
2023/08/10 09:10:40;;;;;;;;;;;20.10;69.60;;;;;;4987187;28;20019;-74
2023/08/10 09:13:25;;;;;;;;;;;20.10;69.50;;;;;;4987502;28;19932;-73
2023/08/10 09:16:15;;;;;;;;;;;20.20;69.60;;;;;;4986148;28;19981;-75
2023/08/10 09:18:50;;;;;;;;;;;20.20;69.10;;;;;;4987143;28;20292;-74
2023/08/10 09:21:28;;;;;;;;;;;20.20;69.10;;;;;;4988006;28;20469;-75
2023/08/10 09:24:09;;;;;;;;;;;20.20;69.20;;;;;;4988611;28;19956;-75
2023/08/10 09:26:46;;;;;;;;;;;20.30;68.80;;;;;;4967864;28;20118;-74
2023/08/10 09:29:34;;;;;;;;;;;20.30;68.60;;;;;;4967778;28;20301;-68
2023/08/10 09:32:16;;;;;;;;;;;20.40;69.00;;;;;;4965768;28;19954;-68
2023/08/10 09:34:52;;;;;;;;;;;20.60;68.60;;;;;;4971244;28;20364;-68
2023/08/10 09:37:27;;;;;;;;;;;20.50;68.40;;;;;;4987666;28;19962;-69
2023/08/10 09:40:11;;;;;;;;;;;20.60;68.20;;;;;;4986815;28;19938;-68
2023/08/10 09:42:48;;;;;;;;;;;20.60;68.10;;;;;;4987194;28;20004;-69
2023/08/10 09:45:19;;;;;;;;;;;20.60;67.80;;;;;;4986571;28;19933;-70
2023/08/10 09:47:50;;;;;;;;;;;20.60;68.00;;;;;;4988395;28;19933;-68
2023/08/10 09:50:26;;;;;;;;;;;20.80;68.00;;;;;;4985025;28;19936;-70
2023/08/10 09:53:05;;;;;;;;;;;20.90;67.50;;;;;;4988254;28;19980;-69
2023/08/10 09:55:40;;;;;;;;;;;20.90;67.00;;;;;;4987346;28;19934;-68
2023/08/10 09:58:22;;;;;;;;;;;20.90;66.90;;;;;;4987492;28;19966;-69
2023/08/10 10:01:01;;;;;;;;;;;20.90;66.20;;;;;;4986250;28;20054;-68
2023/08/10 10:03:38;;;;;;;;;;;20.90;66.20;;;;;;4985993;28;19930;-69
2023/08/10 10:06:16;;;;;;;;;;;21.00;65.90;;;;;;4984393;28;20304;-68
2023/08/10 10:08:52;;;;;;;;;;;21.10;65.80;;;;;;4989487;28;19940;-70
2023/08/10 10:11:33;;;;;;;;;;;21.20;66.10;;;;;;4991527;28;20032;-69
2023/08/10 10:14:12;;;;;;;;;;;21.50;65.90;;;;;;4991115;28;19933;-70
2023/08/10 10:16:48;;;;;;;;;;;21.70;65.10;;;;;;4967129;28;19936;-68
2023/08/10 10:19:22;;;;;;;;;;;22.00;64.90;;;;;;4990839;28;20016;-71
2023/08/10 10:21:57;;;;;;;;;;;22.20;63.90;;;;;;4990066;28;20007;-69
2023/08/10 10:24:34;;;;;;;;;;;22.30;63.20;;;;;;4991047;28;20344;-68
2023/08/10 10:27:43;;;;;;;;;;;22.50;61.80;;;;;;4991119;28;20915;-69
2023/08/10 10:30:22;;;;;;;;;;;22.60;61.20;;;;;;4991370;28;20448;-70
2023/08/10 10:32:59;;;;;;;;;;;22.70;60.20;;;;;;4991704;28;23007;-70
2023/08/10 10:35:37;;;;;;;;;;;22.90;59.20;;;;;;4989072;28;19940;-70
2023/08/10 10:38:14;;;;;;;;;;;22.90;58.60;;;;;;4989726;28;20420;-67
2023/08/10 10:40:55;;;;;;;;;;;23.10;56.60;;;;;;5004903;28;20002;-65
2023/08/10 10:43:40;;;;;;;;;;;23.20;56.70;;;;;;4990962;28;19930;-66
2023/08/10 10:46:32;;;;;;;;;;;23.20;57.20;;;;;;4990866;28;19954;-64
2023/08/10 10:49:11;;;;;;;;;;;23.10;56.20;;;;;;4990961;28;19936;-66
2023/08/10 10:52:02;;;;;;;;;;;23.20;56.60;;;;;;4988799;28;19934;-67
2023/08/10 10:54:40;;;;;;;;;;;23.30;55.90;;;;;;4987355;28;20389;-66
2023/08/10 10:57:21;;;;;;;;;;;23.40;56.30;;;;;;4990222;28;20003;-67
2023/08/10 11:00:03;;;;;;;;;;;23.40;56.20;;;;;;4991336;28;19941;-66
2023/08/10 11:02:41;;;;;;;;;;;23.60;55.40;;;;;;4988871;28;19976;-66
2023/08/10 11:05:20;;;;;;;;;;;23.60;55.80;;;;;;4990906;28;19944;-65
2023/08/10 11:07:53;;;;;;;;;;;23.60;55.00;;;;;;4991625;28;19934;-68
2023/08/10 11:10:28;;;;;;;;;;;23.60;55.10;;;;;;4989799;28;20012;-66
2023/08/10 11:13:14;;;;;;;;;;;23.70;55.20;;;;;;4985608;28;20366;-66
2023/08/10 11:15:54;;;;;;;;;;;23.70;54.90;;;;;;4988369;28;19929;-66
2023/08/10 11:18:27;;;;;;;;;;;23.80;55.00;;;;;;4982349;28;19930;-66
2023/08/10 11:21:03;;;;;;;;;;;23.80;54.60;;;;;;4987501;28;20302;-66
2023/08/10 11:23:37;;;;;;;;;;;23.90;54.90;;;;;;4989054;28;20017;-67
2023/08/10 11:26:13;;;;;;;;;;;23.90;55.00;;;;;;4989192;28;19934;-67
2023/08/10 11:28:49;;;;;;;;;;;23.90;55.30;;;;;;4988126;28;19934;-67
2023/08/10 11:31:28;;;;;;;;;;;23.90;54.60;;;;;;4989976;28;19937;-67
2023/08/10 11:34:05;;;;;;;;;;;24.00;55.20;;;;;;4987320;28;19944;-67
2023/08/10 11:36:47;;;;;;;;;;;24.00;54.40;;;;;;4988209;28;19925;-67
2023/08/10 11:39:25;;;;;;;;;;;24.00;54.30;;;;;;4990003;28;19937;-66
2023/08/10 11:42:03;;;;;;;;;;;24.10;55.20;;;;;;4990173;28;19933;-67
2023/08/10 11:45:16;;;;;;;;;;;24.10;53.90;;;;;;4987825;28;19926;-67
2023/08/10 11:47:59;;;;;;;;;;;24.20;53.50;;;;;;4990295;28;19989;-67
2023/08/10 11:50:32;;;;;;;;;;;24.10;54.30;;;;;;4990276;28;19972;-67
2023/08/10 11:53:15;;;;;;;;;;;23.90;54.20;;;;;;4990980;28;19925;-67
2023/08/10 11:55:59;;;;;;;;;;;23.80;54.30;;;;;;4989827;28;20410;-67
2023/08/10 11:58:37;;;;;;;;;;;23.90;54.80;;;;;;4947178;28;20369;-66
2023/08/10 12:01:16;;;;;;;;;;;24.00;54.70;;;;;;4987063;28;19933;-66
2023/08/10 12:03:55;;;;;;;;;;;24.00;54.60;;;;;;4989855;28;19930;-67
2023/08/10 12:06:31;;;;;;;;;;;24.10;54.20;;;;;;4990428;28;20013;-67
2023/08/10 12:09:50;;;;;;;;;;;24.10;54.50;;;;;;4988962;28;19992;-67
2023/08/10 12:12:40;;;;;;;;;;;24.10;53.40;;;;;;4989994;28;20341;-67
2023/08/10 12:15:39;;;;;;;;;;;24.10;53.70;;;;;;4984466;28;20503;-67
2023/08/10 12:18:27;;;;;;;;;;;24.20;53.10;;;;;;4989755;28;20385;-66
2023/08/10 12:21:40;;;;;;;;;;;24.30;52.80;;;;;;4988881;28;19936;-67
2023/08/10 12:24:20;;;;;;;;;;;24.20;52.40;;;;;;4989520;28;19951;-67
2023/08/10 12:26:54;;;;;;;;;;;24.30;52.20;;;;;;4988909;28;19926;-66
2023/08/10 12:29:30;;;;;;;;;;;24.30;52.30;;;;;;4988549;28;19933;-66
2023/08/10 12:32:28;;;;;;;;;;;24.20;52.40;;;;;;4989415;28;19937;-67
2023/08/10 12:35:12;;;;;;;;;;;24.20;52.30;;;;;;4987803;28;20032;-66
2023/08/10 12:38:06;;;;;;;;;;;24.20;51.40;;;;;;4989667;28;20413;-65
2023/08/10 12:41:13;;;;;;;;;;;24.20;52.30;;;;;;4982522;28;19930;-65
2023/08/10 12:43:54;;;;;;;;;;;24.10;53.60;;;;;;4989070;28;19926;-67
2023/08/10 12:46:35;;;;;;;;;;;24.20;53.20;;;;;;4988904;28;19987;-65
2023/08/10 12:49:08;;;;;;;;;;;24.30;53.50;;;;;;4989348;28;19960;-66
2023/08/10 12:51:45;;;;;;;;;;;24.20;53.60;;;;;;4984032;28;19930;-67
2023/08/10 12:54:26;;;;;;;;;;;24.20;52.50;;;;;;4999130;28;19999;-65
2023/08/10 12:57:03;;;;;;;;;;;24.20;53.30;;;;;;4987569;28;19929;-66
2023/08/10 12:59:38;;;;;;;;;;;24.10;53.00;;;;;;4985749;28;19929;-66
2023/08/10 13:02:18;;;;;;;;;;;24.10;52.80;;;;;;4985346;28;20027;-66
2023/08/10 13:04:57;;;;;;;;;;;24.10;52.50;;;;;;4987705;28;19937;-66
2023/08/10 13:07:51;;;;;;;;;;;24.10;52.00;;;;;;4986427;28;19956;-66
2023/08/10 13:10:43;;;;;;;;;;;24.20;52.80;;;;;;4984329;28;19929;-69
2023/08/10 13:13:38;;;;;;;;;;;24.10;52.80;;;;;;4987919;28;19956;-67
2023/08/10 13:16:27;;;;;;;;;;;24.10;53.10;;;;;;4988086;28;19932;-66
2023/08/10 13:19:10;;;;;;;;;;;24.20;52.30;;;;;;4988510;28;20315;-68
2023/08/10 13:21:46;;;;;;;;;;;24.20;52.50;;;;;;4988294;28;19926;-68
2023/08/10 13:24:20;;;;;;;;;;;24.00;52.70;;;;;;4987710;28;19930;-67
2023/08/10 13:26:53;;;;;;;;;;;24.00;53.00;;;;;;4988155;28;20012;-69
2023/08/10 13:29:37;;;;;;;;;;;24.00;52.60;;;;;;4987373;28;19934;-67
2023/08/10 13:32:17;;;;;;;;;;;24.00;53.20;;;;;;4987630;28;19934;-66
2023/08/10 13:34:55;;;;;;;;;;;24.00;52.40;;;;;;4988656;28;20028;-67
2023/08/10 13:38:01;;;;;;;;;;;24.00;52.40;;;;;;4983931;28;19925;-66
2023/08/10 13:41:32;;;;;;;;;;;24.00;53.20;;;;;;4987678;28;19984;-66
2023/08/10 13:44:09;;;;;;;;;;;23.90;53.90;;;;;;4981043;28;19937;-67
2023/08/10 13:46:37;;;;;;;;;;;23.80;53.40;;;;;;4988406;28;20373;-67
2023/08/10 13:49:05;;;;;;;;;;;23.80;53.70;;;;;;4985207;28;19936;-68
2023/08/10 13:51:33;;;;;;;;;;;23.90;52.80;;;;;;4987977;28;19930;-67
2023/08/10 13:54:00;;;;;;;;;;;23.90;53.40;;;;;;4987922;28;19937;-67
2023/08/10 13:56:27;;;;;;;;;;;24.00;53.10;;;;;;4988166;28;19941;-67
2023/08/10 13:58:54;;;;;;;;;;;23.90;52.40;;;;;;4987566;28;19929;-67
2023/08/10 14:01:22;;;;;;;;;;;23.80;52.60;;;;;;4988114;28;20052;-67
2023/08/10 14:03:51;;;;;;;;;;;23.80;52.90;;;;;;4987498;28;19933;-67
2023/08/10 14:06:17;;;;;;;;;;;23.80;52.50;;;;;;4987594;28;19929;-67
2023/08/10 14:08:44;;;;;;;;;;;23.70;52.70;;;;;;4988042;28;19926;-72
2023/08/10 14:11:11;;;;;;;;;;;23.70;52.70;;;;;;4985818;28;20000;-71
2023/08/10 14:13:38;;;;;;;;;;;23.70;52.50;;;;;;4988744;28;20044;-72
2023/08/10 14:16:05;;;;;;;;;;;23.70;52.90;;;;;;4986826;28;20024;-71
2023/08/10 14:18:32;;;;;;;;;;;23.60;53.30;;;;;;4987234;28;20029;-72
2023/08/10 14:21:01;;;;;;;;;;;23.60;53.60;;;;;;4982976;28;19934;-71
2023/08/10 14:23:28;;;;;;;;;;;23.70;53.20;;;;;;4987000;28;19976;-71
2023/08/10 14:25:55;;;;;;;;;;;23.70;53.60;;;;;;4987463;28;20020;-72
2023/08/10 14:28:22;;;;;;;;;;;23.80;53.60;;;;;;4988037;28;20337;-71
2023/08/10 14:30:49;;;;;;;;;;;23.70;53.60;;;;;;4986723;28;20017;-71
2023/08/10 14:33:17;;;;;;;;;;;23.60;53.10;;;;;;4986310;28;19929;-73
2023/08/10 14:35:44;;;;;;;;;;;23.60;53.60;;;;;;4987054;28;19981;-71
2023/08/10 14:38:12;;;;;;;;;;;23.60;53.70;;;;;;4985708;28;20425;-72
2023/08/10 14:40:39;;;;;;;;;;;23.60;53.90;;;;;;4988229;28;19930;-71
2023/08/10 14:43:06;;;;;;;;;;;23.50;54.00;;;;;;4986605;28;20329;-71
2023/08/10 14:45:34;;;;;;;;;;;23.50;54.50;;;;;;4983521;28;20017;-71
2023/08/10 14:48:01;;;;;;;;;;;23.40;54.70;;;;;;4987344;28;19937;-71
2023/08/10 14:50:29;;;;;;;;;;;23.40;54.40;;;;;;4986433;28;20033;-71
2023/08/10 14:52:56;;;;;;;;;;;23.50;55.10;;;;;;4988073;28;19937;-71
2023/08/10 14:55:26;;;;;;;;;;;23.50;54.30;;;;;;4990924;28;19969;-72
2023/08/10 14:57:53;;;;;;;;;;;23.50;54.00;;;;;;4990749;28;19996;-71
2023/08/10 15:00:23;;;;;;;;;;;23.50;54.00;;;;;;4990574;28;21820;-72